sensor_id;sensor_type;location;lat;lon;timestamp;noise_LAeq;noise_LA_min;noise_LA_max;noise_LA01;noise_LA95
48148;Laerm;29352;48.708;9.290;2023-02-18T00:01:27;53.59;51.14;64.09;;
48148;Laerm;29352;48.708;9.290;2023-02-18T00:03:58;53.56;51.30;60.20;;
48148;Laerm;29352;48.708;9.290;2023-02-18T00:06:30;53.62;51.96;57.36;;
48148;Laerm;29352;48.708;9.290;2023-02-18T00:08:57;53.58;51.22;59.03;;
48148;Laerm;29352;48.708;9.290;2023-02-18T00:11:28;53.64;50.36;55.42;;
48148;Laerm;29352;48.708;9.290;2023-02-18T00:13:58;53.61;50.98;54.90;;
48148;Laerm;29352;48.708;9.290;2023-02-18T00:16:26;53.36;49.34;54.80;;
48148;Laerm;29352;48.708;9.290;2023-02-18T00:18:58;53.22;49.34;54.62;;
48148;Laerm;29352;48.708;9.290;2023-02-18T00:21:25;53.51;49.34;54.76;;
48148;Laerm;29352;48.708;9.290;2023-02-18T00:23:51;53.58;49.21;54.94;;
48148;Laerm;29352;48.708;9.290;2023-02-18T00:26:18;53.50;51.89;54.83;;
48148;Laerm;29352;48.708;9.290;2023-02-18T00:28:45;53.26;36.91;54.76;;
48148;Laerm;29352;48.708;9.290;2023-02-18T00:31:21;53.17;50.43;54.69;;
48148;Laerm;29352;48.708;9.290;2023-02-18T00:33:46;53.52;51.53;54.90;;
48148;Laerm;29352;48.708;9.290;2023-02-18T00:36:16;53.39;50.71;54.58;;
48148;Laerm;29352;48.708;9.290;2023-02-18T00:38:57;52.36;45.36;57.67;;
48148;Laerm;29352;48.708;9.290;2023-02-18T00:41:27;53.23;47.88;55.20;;
48148;Laerm;29352;48.708;9.290;2023-02-18T00:43:53;53.72;49.08;55.30;;
48148;Laerm;29352;48.708;9.290;2023-02-18T00:46:21;53.50;46.56;59.90;;
48148;Laerm;29352;48.708;9.290;2023-02-18T00:48:47;53.11;49.92;59.30;;
48148;Laerm;29352;48.708;9.290;2023-02-18T00:51:13;53.82;50.89;54.90;;
48148;Laerm;29352;48.708;9.290;2023-02-18T00:53:40;53.77;51.53;54.94;;
48148;Laerm;29352;48.708;9.290;2023-02-18T00:56:06;53.46;50.62;54.97;;
48148;Laerm;29352;48.708;9.290;2023-02-18T00:58:33;53.69;51.75;56.23;;
48148;Laerm;29352;48.708;9.290;2023-02-18T01:00:59;53.79;51.96;56.15;;
48148;Laerm;29352;48.708;9.290;2023-02-18T01:03:26;53.81;51.68;54.94;;
48148;Laerm;29352;48.708;9.290;2023-02-18T01:05:52;53.69;51.26;63.00;;
48148;Laerm;29352;48.708;9.290;2023-02-18T01:08:20;53.64;50.62;54.76;;
48148;Laerm;29352;48.708;9.290;2023-02-18T01:10:49;53.70;51.46;54.94;;
48148;Laerm;29352;48.708;9.290;2023-02-18T01:13:16;53.53;51.38;55.36;;
48148;Laerm;29352;48.708;9.290;2023-02-18T01:15:43;53.73;51.22;59.56;;
48148;Laerm;29352;48.708;9.290;2023-02-18T01:18:11;53.80;50.98;57.72;;
48148;Laerm;29352;48.708;9.290;2023-02-18T01:20:40;53.74;51.46;59.50;;
48148;Laerm;29352;48.708;9.290;2023-02-18T01:23:07;53.81;50.89;57.38;;
48148;Laerm;29352;48.708;9.290;2023-02-18T01:25:34;53.72;50.71;57.96;;
48148;Laerm;29352;48.708;9.290;2023-02-18T01:28:02;53.53;49.81;62.78;;
48148;Laerm;29352;48.708;9.290;2023-02-18T01:30:28;53.44;49.92;61.74;;
48148;Laerm;29352;48.708;9.290;2023-02-18T01:32:56;53.79;52.19;57.83;;
48148;Laerm;29352;48.708;9.290;2023-02-18T01:35:23;53.74;51.82;59.49;;
48148;Laerm;29352;48.708;9.290;2023-02-18T01:37:49;53.82;52.22;65.24;;
48148;Laerm;29352;48.708;9.290;2023-02-18T01:40:21;53.81;52.53;56.78;;
48148;Laerm;29352;48.708;9.290;2023-02-18T01:42:48;53.80;52.35;63.67;;
48148;Laerm;29352;48.708;9.290;2023-02-18T01:48:01;53.67;51.61;57.36;;
48148;Laerm;29352;48.708;9.290;2023-02-18T01:50:29;53.78;51.61;67.34;;
48148;Laerm;29352;48.708;9.290;2023-02-18T01:52:56;53.82;51.75;65.55;;
48148;Laerm;29352;48.708;9.290;2023-02-18T01:55:22;53.73;51.61;58.71;;
48148;Laerm;29352;48.708;9.290;2023-02-18T01:57:47;53.81;50.98;68.72;;
48148;Laerm;29352;48.708;9.290;2023-02-18T02:00:17;53.81;52.41;58.63;;
48148;Laerm;29352;48.708;9.290;2023-02-18T02:02:48;53.79;52.22;56.76;;
48148;Laerm;29352;48.708;9.290;2023-02-18T02:05:15;53.80;52.59;57.36;;
48148;Laerm;29352;48.708;9.290;2023-02-18T02:07:44;52.75;48.05;69.57;;
48148;Laerm;29352;48.708;9.290;2023-02-18T02:10:13;51.54;44.69;71.27;;
48148;Laerm;29352;48.708;9.290;2023-02-18T02:16:03;53.12;49.70;61.01;;
48148;Laerm;29352;48.708;9.290;2023-02-18T02:25:15;52.53;49.46;60.38;;
48148;Laerm;29352;48.708;9.290;2023-02-18T02:31:07;52.73;50.23;59.24;;
48148;Laerm;29352;48.708;9.290;2023-02-18T02:34:02;52.72;49.08;57.93;;
48148;Laerm;29352;48.708;9.290;2023-02-18T02:36:49;53.25;50.89;56.89;;
48148;Laerm;29352;48.708;9.290;2023-02-18T02:39:38;53.33;51.14;64.25;;
48148;Laerm;29352;48.708;9.290;2023-02-18T02:51:14;52.63;49.58;58.78;;
48148;Laerm;29352;48.708;9.290;2023-02-18T02:53:43;52.06;49.46;63.08;;
48148;Laerm;29352;48.708;9.290;2023-02-18T02:56:15;52.29;50.43;66.49;;
48148;Laerm;29352;48.708;9.290;2023-02-18T02:58:42;52.37;49.81;62.96;;
48148;Laerm;29352;48.708;9.290;2023-02-18T03:07:06;52.81;49.92;60.30;;
48148;Laerm;29352;48.708;9.290;2023-02-18T03:13:12;52.74;48.67;62.24;;
48148;Laerm;29352;48.708;9.290;2023-02-18T03:15:56;53.11;50.62;63.49;;
48148;Laerm;29352;48.708;9.290;2023-02-18T03:18:36;53.17;50.80;61.06;;
48148;Laerm;29352;48.708;9.290;2023-02-18T03:21:12;53.25;50.33;63.19;;
48148;Laerm;29352;48.708;9.290;2023-02-18T03:26:19;53.31;50.71;59.18;;
48148;Laerm;29352;48.708;9.290;2023-02-18T03:28:50;53.50;49.81;57.43;;
48148;Laerm;29352;48.708;9.290;2023-02-18T03:31:24;53.76;52.03;68.88;;
48148;Laerm;29352;48.708;9.290;2023-02-18T03:34:01;53.60;52.47;55.83;;
48148;Laerm;29352;48.708;9.290;2023-02-18T03:36:31;53.67;52.35;56.71;;
48148;Laerm;29352;48.708;9.290;2023-02-18T03:39:05;53.70;50.23;58.02;;
48148;Laerm;29352;48.708;9.290;2023-02-18T03:41:32;53.71;50.53;59.18;;
48148;Laerm;29352;48.708;9.290;2023-02-18T03:44:03;53.67;49.21;56.38;;
48148;Laerm;29352;48.708;9.290;2023-02-18T03:46:31;53.71;49.58;59.65;;
48148;Laerm;29352;48.708;9.290;2023-02-18T03:48:57;53.70;50.33;57.14;;
48148;Laerm;29352;48.708;9.290;2023-02-18T03:51:23;53.72;50.89;69.23;;
48148;Laerm;29352;48.708;9.290;2023-02-18T03:53:48;53.72;52.59;60.85;;
48148;Laerm;29352;48.708;9.290;2023-02-18T03:56:14;53.71;52.65;57.96;;
48148;Laerm;29352;48.708;9.290;2023-02-18T03:58:40;53.70;52.47;54.97;;
48148;Laerm;29352;48.708;9.290;2023-02-18T04:01:05;53.62;52.29;55.23;;
48148;Laerm;29352;48.708;9.290;2023-02-18T04:03:31;53.61;52.09;58.12;;
48148;Laerm;29352;48.708;9.290;2023-02-18T04:05:57;53.50;51.82;58.39;;
48148;Laerm;29352;48.708;9.290;2023-02-18T04:08:24;53.07;51.55;55.46;;
48148;Laerm;29352;48.708;9.290;2023-02-18T04:10:49;52.95;50.53;57.36;;
48148;Laerm;29352;48.708;9.290;2023-02-18T04:13:15;52.74;50.71;55.66;;
48148;Laerm;29352;48.708;9.290;2023-02-18T04:15:47;52.86;49.35;55.48;;
48148;Laerm;29352;48.708;9.290;2023-02-18T04:18:13;53.39;51.22;55.39;;
48148;Laerm;29352;48.708;9.290;2023-02-18T04:20:38;53.17;51.68;55.11;;
48148;Laerm;29352;48.708;9.290;2023-02-18T04:23:04;53.08;50.43;54.23;;
48148;Laerm;29352;48.708;9.290;2023-02-18T04:25:30;53.04;51.41;54.97;;
48148;Laerm;29352;48.708;9.290;2023-02-18T04:27:55;52.42;47.52;56.97;;
48148;Laerm;29352;48.708;9.290;2023-02-18T04:30:22;53.12;50.33;55.57;;
48148;Laerm;29352;48.708;9.290;2023-02-18T04:32:48;53.10;47.12;54.39;;
48148;Laerm;29352;48.708;9.290;2023-02-18T04:35:13;53.10;50.23;54.76;;
48148;Laerm;29352;48.708;9.290;2023-02-18T04:37:39;53.10;51.53;58.90;;
48148;Laerm;29352;48.708;9.290;2023-02-18T04:40:05;53.08;51.30;55.45;;
48148;Laerm;29352;48.708;9.290;2023-02-18T04:42:31;53.03;47.88;54.43;;
48148;Laerm;29352;48.708;9.290;2023-02-18T04:44:56;53.07;51.53;55.99;;
48148;Laerm;29352;48.708;9.290;2023-02-18T04:47:22;53.03;51.68;55.20;;
48148;Laerm;29352;48.708;9.290;2023-02-18T04:49:47;53.08;43.44;56.64;;
48148;Laerm;29352;48.708;9.290;2023-02-18T04:52:13;53.08;51.61;54.62;;
48148;Laerm;29352;48.708;9.290;2023-02-18T04:54:38;53.21;49.34;55.63;;
48148;Laerm;29352;48.708;9.290;2023-02-18T04:57:03;53.05;50.98;54.47;;
48148;Laerm;29352;48.708;9.290;2023-02-18T04:59:29;53.05;51.38;54.27;;
48148;Laerm;29352;48.708;9.290;2023-02-18T05:01:54;52.69;47.52;54.58;;
48148;Laerm;29352;48.708;9.290;2023-02-18T05:04:20;52.64;47.88;55.63;;
48148;Laerm;29352;48.708;9.290;2023-02-18T05:06:46;52.06;38.67;54.27;;
48148;Laerm;29352;48.708;9.290;2023-02-18T05:09:12;53.11;15.00;54.31;;
48148;Laerm;29352;48.708;9.290;2023-02-18T05:11:37;53.09;46.69;61.13;;
48148;Laerm;29352;48.708;9.290;2023-02-18T05:14:03;52.44;36.91;56.43;;
48148;Laerm;29352;48.708;9.290;2023-02-18T05:16:28;46.48;15.00;51.06;;
48148;Laerm;29352;48.708;9.290;2023-02-18T05:18:54;46.48;15.00;52.71;;
48148;Laerm;29352;48.708;9.290;2023-02-18T05:21:19;46.51;15.00;51.30;;
48148;Laerm;29352;48.708;9.290;2023-02-18T05:23:45;46.82;15.00;53.86;;
48148;Laerm;29352;48.708;9.290;2023-02-18T05:26:10;47.13;15.00;53.68;;
48148;Laerm;29352;48.708;9.290;2023-02-18T05:28:36;48.50;15.00;53.86;;
48148;Laerm;29352;48.708;9.290;2023-02-18T05:31:01;48.79;36.91;53.60;;
48148;Laerm;29352;48.708;9.290;2023-02-18T05:33:27;50.92;41.68;54.03;;
48148;Laerm;29352;48.708;9.290;2023-02-18T05:35:52;50.14;44.31;53.72;;
48148;Laerm;29352;48.708;9.290;2023-02-18T05:38:18;50.01;43.90;53.72;;
48148;Laerm;29352;48.708;9.290;2023-02-18T05:40:44;50.16;15.00;54.62;;
48148;Laerm;29352;48.708;9.290;2023-02-18T05:43:10;51.38;46.20;54.90;;
48148;Laerm;29352;48.708;9.290;2023-02-18T05:45:36;51.76;47.70;54.69;;
48148;Laerm;29352;48.708;9.290;2023-02-18T05:48:02;51.29;46.20;53.90;;
48148;Laerm;29352;48.708;9.290;2023-02-18T05:50:27;52.96;46.91;54.19;;
48148;Laerm;29352;48.708;9.290;2023-02-18T05:52:53;53.22;48.95;54.87;;
48148;Laerm;29352;48.708;9.290;2023-02-18T05:55:18;53.07;50.62;58.29;;
48148;Laerm;29352;48.708;9.290;2023-02-18T05:57:44;52.93;50.71;55.86;;
48148;Laerm;29352;48.708;9.290;2023-02-18T06:00:10;51.78;48.52;57.18;;
48148;Laerm;29352;48.708;9.290;2023-02-18T06:02:36;52.80;50.13;54.97;;
48148;Laerm;29352;48.708;9.290;2023-02-18T06:05:03;52.36;48.21;56.40;;
48148;Laerm;29352;48.708;9.290;2023-02-18T06:07:29;52.06;45.66;59.25;;
48148;Laerm;29352;48.708;9.290;2023-02-18T06:09:55;52.83;49.92;58.84;;
48148;Laerm;29352;48.708;9.290;2023-02-18T06:12:20;52.72;48.81;56.07;;
48148;Laerm;29352;48.708;9.290;2023-02-18T06:14:46;52.65;48.21;58.05;;
48148;Laerm;29352;48.708;9.290;2023-02-18T06:17:13;52.77;48.95;54.54;;
48148;Laerm;29352;48.708;9.290;2023-02-18T06:19:40;51.98;15.00;57.19;;
48148;Laerm;29352;48.708;9.290;2023-02-18T06:22:06;49.65;33.90;55.86;;
48148;Laerm;29352;48.708;9.290;2023-02-18T06:24:33;49.40;33.90;57.77;;
48148;Laerm;29352;48.708;9.290;2023-02-18T06:26:58;51.87;42.93;56.61;;
48148;Laerm;29352;48.708;9.290;2023-02-18T06:29:24;52.97;42.35;56.13;;
48148;Laerm;29352;48.708;9.290;2023-02-18T06:31:49;52.96;48.52;57.55;;
48148;Laerm;29352;48.708;9.290;2023-02-18T06:34:15;52.24;48.81;58.61;;
48148;Laerm;29352;48.708;9.290;2023-02-18T06:36:41;51.77;41.68;59.73;;
48148;Laerm;29352;48.708;9.290;2023-02-18T06:39:07;51.14;40.89;59.06;;
48148;Laerm;29352;48.708;9.290;2023-02-18T06:41:33;52.19;43.90;60.18;;
48148;Laerm;29352;48.708;9.290;2023-02-18T06:43:58;52.33;33.90;60.25;;
48148;Laerm;29352;48.708;9.290;2023-02-18T06:46:24;52.09;41.33;61.33;;
48148;Laerm;29352;48.708;9.290;2023-02-18T06:48:50;51.66;44.31;56.87;;
48148;Laerm;29352;48.708;9.290;2023-02-18T06:51:15;50.52;40.89;55.80;;
48148;Laerm;29352;48.708;9.290;2023-02-18T06:53:42;51.15;33.90;64.57;;
48148;Laerm;29352;48.708;9.290;2023-02-18T06:56:09;50.48;38.67;60.34;;
48148;Laerm;29352;48.708;9.290;2023-02-18T06:58:34;50.39;42.35;59.38;;
48148;Laerm;29352;48.708;9.290;2023-02-18T07:01:00;50.07;45.66;67.01;;
48148;Laerm;29352;48.708;9.290;2023-02-18T07:03:25;49.45;44.31;60.74;;
48148;Laerm;29352;48.708;9.290;2023-02-18T07:05:51;50.48;46.20;60.49;;
48148;Laerm;29352;48.708;9.290;2023-02-18T07:08:17;50.49;41.68;61.13;;
48148;Laerm;29352;48.708;9.290;2023-02-18T07:10:42;49.95;44.31;56.55;;
48148;Laerm;29352;48.708;9.290;2023-02-18T07:13:08;51.41;46.20;63.11;;
48148;Laerm;29352;48.708;9.290;2023-02-18T07:15:34;52.30;46.91;66.49;;
48148;Laerm;29352;48.708;9.290;2023-02-18T07:17:59;52.59;49.92;55.54;;
48148;Laerm;29352;48.708;9.290;2023-02-18T07:20:26;52.59;50.03;66.71;;
48148;Laerm;29352;48.708;9.290;2023-02-18T07:22:52;52.41;49.92;54.07;;
48148;Laerm;29352;48.708;9.290;2023-02-18T07:25:19;52.66;50.71;58.23;;
48148;Laerm;29352;48.708;9.290;2023-02-18T07:27:45;52.43;49.70;55.94;;
48148;Laerm;29352;48.708;9.290;2023-02-18T07:30:11;52.12;49.70;56.84;;
48148;Laerm;29352;48.708;9.290;2023-02-18T07:32:37;52.66;50.33;59.18;;
48148;Laerm;29352;48.708;9.290;2023-02-18T07:35:04;52.35;49.92;69.34;;
48148;Laerm;29352;48.708;9.290;2023-02-18T07:37:30;52.30;49.92;64.77;;
48148;Laerm;29352;48.708;9.290;2023-02-18T07:39:56;51.96;49.21;58.66;;
48148;Laerm;29352;48.708;9.290;2023-02-18T07:42:21;52.20;50.13;57.32;;
48148;Laerm;29352;48.708;9.290;2023-02-18T07:44:47;52.44;50.03;56.07;;
48148;Laerm;29352;48.708;9.290;2023-02-18T07:47:16;51.91;48.21;55.23;;
48148;Laerm;29352;48.708;9.290;2023-02-18T07:49:44;52.03;49.21;55.20;;
48148;Laerm;29352;48.708;9.290;2023-02-18T07:52:11;52.18;49.46;63.34;;
48148;Laerm;29352;48.708;9.290;2023-02-18T07:54:37;51.19;47.53;56.50;;
48148;Laerm;29352;48.708;9.290;2023-02-18T07:57:02;51.99;47.88;61.87;;
48148;Laerm;29352;48.708;9.290;2023-02-18T07:59:28;51.79;47.12;60.72;;
48148;Laerm;29352;48.708;9.290;2023-02-18T08:01:54;51.49;48.21;57.61;;
48148;Laerm;29352;48.708;9.290;2023-02-18T08:04:19;51.94;48.05;56.73;;
48148;Laerm;29352;48.708;9.290;2023-02-18T08:06:48;52.06;48.95;55.99;;
48148;Laerm;29352;48.708;9.290;2023-02-18T08:09:16;52.52;49.46;55.20;;
48148;Laerm;29352;48.708;9.290;2023-02-18T08:11:42;51.97;49.70;53.68;;
48148;Laerm;29352;48.708;9.290;2023-02-18T08:14:08;51.92;48.95;58.55;;
48148;Laerm;29352;48.708;9.290;2023-02-18T08:16:34;52.21;49.81;55.17;;
48148;Laerm;29352;48.708;9.290;2023-02-18T08:19:01;53.14;50.03;58.39;;
48148;Laerm;29352;48.708;9.290;2023-02-18T08:21:28;53.29;49.70;56.02;;
48148;Laerm;29352;48.708;9.290;2023-02-18T08:23:53;53.50;51.61;54.65;;
48148;Laerm;29352;48.708;9.290;2023-02-18T08:26:20;53.70;50.03;56.62;;
48148;Laerm;29352;48.708;9.290;2023-02-18T08:28:47;53.59;51.61;54.80;;
48148;Laerm;29352;48.708;9.290;2023-02-18T08:31:19;53.71;51.75;55.11;;
48148;Laerm;29352;48.708;9.290;2023-02-18T08:33:45;53.45;48.67;57.08;;
48148;Laerm;29352;48.708;9.290;2023-02-18T08:36:11;53.31;50.43;54.65;;
48148;Laerm;29352;48.708;9.290;2023-02-18T08:38:36;53.18;50.98;61.56;;
48148;Laerm;29352;48.708;9.290;2023-02-18T08:41:05;53.39;51.61;54.69;;
48148;Laerm;29352;48.708;9.290;2023-02-18T08:43:30;53.51;51.89;54.69;;
48148;Laerm;29352;48.708;9.290;2023-02-18T08:45:57;53.36;51.30;54.62;;
48148;Laerm;29352;48.708;9.290;2023-02-18T08:48:24;53.60;51.14;55.07;;
48148;Laerm;29352;48.708;9.290;2023-02-18T08:50:50;53.93;50.80;55.14;;
48148;Laerm;29352;48.708;9.290;2023-02-18T08:53:17;53.90;51.96;54.94;;
48148;Laerm;29352;48.708;9.290;2023-02-18T08:55:43;53.90;50.71;55.07;;
48148;Laerm;29352;48.708;9.290;2023-02-18T08:58:09;53.58;47.88;55.01;;
48148;Laerm;29352;48.708;9.290;2023-02-18T09:00:37;53.76;51.14;55.04;;
48148;Laerm;29352;48.708;9.290;2023-02-18T09:03:05;53.75;46.20;55.07;;
48148;Laerm;29352;48.708;9.290;2023-02-18T09:05:31;53.64;47.70;55.57;;
48148;Laerm;29352;48.708;9.290;2023-02-18T09:07:56;52.72;45.94;54.58;;
48148;Laerm;29352;48.708;9.290;2023-02-18T09:10:23;50.13;15.00;54.35;;
48148;Laerm;29352;48.708;9.290;2023-02-18T09:12:48;48.81;38.67;52.59;;
48148;Laerm;29352;48.708;9.290;2023-02-18T09:15:14;49.57;42.35;52.22;;
48148;Laerm;29352;48.708;9.290;2023-02-18T09:17:40;50.84;42.35;54.83;;
48148;Laerm;29352;48.708;9.290;2023-02-18T09:20:06;53.99;51.75;55.01;;
48148;Laerm;29352;48.708;9.290;2023-02-18T09:22:32;53.27;46.45;55.04;;
48148;Laerm;29352;48.708;9.290;2023-02-18T09:24:58;53.15;44.69;55.04;;
48148;Laerm;29352;48.708;9.290;2023-02-18T09:27:24;53.51;42.35;55.01;;
48148;Laerm;29352;48.708;9.290;2023-02-18T09:29:50;53.57;48.05;55.01;;
48148;Laerm;29352;48.708;9.290;2023-02-18T09:32:16;54.00;49.21;55.11;;
48148;Laerm;29352;48.708;9.290;2023-02-18T09:34:44;53.49;48.37;54.97;;
48148;Laerm;29352;48.708;9.290;2023-02-18T09:37:10;52.69;47.52;55.66;;
48148;Laerm;29352;48.708;9.290;2023-02-18T09:39:36;51.94;47.88;56.48;;
48148;Laerm;29352;48.708;9.290;2023-02-18T09:42:12;52.49;48.81;56.89;;
48148;Laerm;29352;48.708;9.290;2023-02-18T09:44:53;51.88;48.37;54.39;;
48148;Laerm;29352;48.708;9.290;2023-02-18T09:47:41;51.17;47.12;53.77;;
48148;Laerm;29352;48.708;9.290;2023-02-18T09:50:26;50.59;44.69;56.02;;
48148;Laerm;29352;48.708;9.290;2023-02-18T09:52:52;51.57;48.05;54.11;;
48148;Laerm;29352;48.708;9.290;2023-02-18T09:55:34;52.44;44.31;54.65;;
48148;Laerm;29352;48.708;9.290;2023-02-18T09:58:20;51.13;42.93;54.58;;
48148;Laerm;29352;48.708;9.290;2023-02-18T10:01:05;50.78;45.04;54.31;;
48148;Laerm;29352;48.708;9.290;2023-02-18T10:03:36;52.33;46.69;54.69;;
48148;Laerm;29352;48.708;9.290;2023-02-18T10:06:09;50.83;42.35;54.47;;
48148;Laerm;29352;48.708;9.290;2023-02-18T10:08:46;48.98;42.93;53.81;;
48148;Laerm;29352;48.708;9.290;2023-02-18T10:11:22;49.03;33.90;51.96;;
48148;Laerm;29352;48.708;9.290;2023-02-18T10:13:51;49.38;42.35;52.53;;
48148;Laerm;29352;48.708;9.290;2023-02-18T10:16:18;48.25;40.89;51.82;;
48148;Laerm;29352;48.708;9.290;2023-02-18T10:18:50;47.61;15.00;50.89;;
48148;Laerm;29352;48.708;9.290;2023-02-18T10:21:26;48.38;15.00;52.79;;
48148;Laerm;29352;48.708;9.290;2023-02-18T10:24:27;47.32;15.00;51.41;;
48148;Laerm;29352;48.708;9.290;2023-02-18T10:26:55;47.22;15.00;50.53;;
48148;Laerm;29352;48.708;9.290;2023-02-18T10:29:22;48.67;33.90;52.47;;
48148;Laerm;29352;48.708;9.290;2023-02-18T10:32:31;47.20;15.00;50.98;;
48148;Laerm;29352;48.708;9.290;2023-02-18T10:35:16;47.06;15.00;50.53;;
48148;Laerm;29352;48.708;9.290;2023-02-18T10:41:41;47.42;33.90;52.22;;
48148;Laerm;29352;48.708;9.290;2023-02-18T10:47:38;47.33;38.67;50.98;;
48148;Laerm;29352;48.708;9.290;2023-02-18T10:50:40;47.25;33.90;52.41;;
48148;Laerm;29352;48.708;9.290;2023-02-18T10:53:33;47.40;33.90;50.80;;
48148;Laerm;29352;48.708;9.290;2023-02-18T10:55:59;48.28;36.91;51.46;;
48148;Laerm;29352;48.708;9.290;2023-02-18T10:58:46;50.74;33.90;54.51;;
48148;Laerm;29352;48.708;9.290;2023-02-18T11:01:18;52.46;50.03;54.43;;
48148;Laerm;29352;48.708;9.290;2023-02-18T11:03:51;52.62;48.37;54.11;;
48148;Laerm;29352;48.708;9.290;2023-02-18T11:06:41;52.13;48.67;54.35;;
48148;Laerm;29352;48.708;9.290;2023-02-18T11:09:33;52.29;49.70;54.15;;
48148;Laerm;29352;48.708;9.290;2023-02-18T11:12:22;52.20;50.13;54.03;;
48148;Laerm;29352;48.708;9.290;2023-02-18T11:17:41;52.16;49.34;54.35;;
48148;Laerm;29352;48.708;9.290;2023-02-18T11:20:37;52.10;49.34;54.23;;
48148;Laerm;29352;48.708;9.290;2023-02-18T11:25:35;52.69;50.03;54.27;;
48148;Laerm;29352;48.708;9.290;2023-02-18T11:28:20;52.82;48.81;60.98;;
48148;Laerm;29352;48.708;9.290;2023-02-18T11:30:59;52.52;48.81;62.78;;
48148;Laerm;29352;48.708;9.290;2023-02-18T11:38:48;52.54;49.58;54.89;;
48148;Laerm;29352;48.708;9.290;2023-02-18T11:41:20;51.96;49.34;53.86;;
48148;Laerm;29352;48.708;9.290;2023-02-18T11:43:52;52.56;50.62;54.23;;
48148;Laerm;29352;48.708;9.290;2023-02-18T11:46:24;52.18;49.21;54.35;;
48148;Laerm;29352;48.708;9.290;2023-02-18T11:48:51;52.28;48.95;54.54;;
48148;Laerm;29352;48.708;9.290;2023-02-18T11:51:25;52.46;50.23;54.39;;
48148;Laerm;29352;48.708;9.290;2023-02-18T11:57:19;53.48;51.06;55.48;;
48148;Laerm;29352;48.708;9.290;2023-02-18T11:59:51;53.35;50.62;54.62;;
48148;Laerm;29352;48.708;9.290;2023-02-18T12:02:33;53.29;50.80;54.58;;
48148;Laerm;29352;48.708;9.290;2023-02-18T12:05:04;53.20;50.53;54.58;;
48148;Laerm;29352;48.708;9.290;2023-02-18T12:08:33;52.61;49.70;54.23;;
48148;Laerm;29352;48.708;9.290;2023-02-18T12:10:42;53.12;50.89;54.51;;
48148;Laerm;29352;48.708;9.290;2023-02-18T12:13:36;53.46;51.82;54.58;;
48148;Laerm;29352;48.708;9.290;2023-02-18T12:22:20;53.41;50.80;54.54;;
48148;Laerm;29352;48.708;9.290;2023-02-18T12:28:26;53.45;51.33;54.69;;
48148;Laerm;29352;48.708;9.290;2023-02-18T12:34:38;53.36;52.03;54.34;;
48148;Laerm;29352;48.708;9.290;2023-02-18T12:37:49;53.29;48.52;54.65;;
48148;Laerm;29352;48.708;9.290;2023-02-18T12:43:38;53.28;51.38;54.31;;
48148;Laerm;29352;48.708;9.290;2023-02-18T12:55:23;53.32;52.16;54.27;;
48148;Laerm;29352;48.708;9.290;2023-02-18T12:58:13;53.33;52.03;54.43;;
48148;Laerm;29352;48.708;9.290;2023-02-18T13:00:59;53.34;52.22;54.62;;
48148;Laerm;29352;48.708;9.290;2023-02-18T13:04:00;53.33;52.09;54.31;;
48148;Laerm;29352;48.708;9.290;2023-02-18T13:10:17;53.31;52.03;54.43;;
48148;Laerm;29352;48.708;9.290;2023-02-18T13:12:58;53.29;51.82;54.62;;
48148;Laerm;29352;48.708;9.290;2023-02-18T13:18:07;53.30;51.89;54.47;;
48148;Laerm;29352;48.708;9.290;2023-02-18T13:20:58;53.29;52.22;54.35;;
48148;Laerm;29352;48.708;9.290;2023-02-18T13:23:36;53.27;51.96;54.43;;
48148;Laerm;29352;48.708;9.290;2023-02-18T13:26:08;53.27;52.22;54.31;;
48148;Laerm;29352;48.708;9.290;2023-02-18T13:37:50;53.24;51.96;54.27;;
48148;Laerm;29352;48.708;9.290;2023-02-18T13:40:26;53.24;51.96;54.31;;
48148;Laerm;29352;48.708;9.290;2023-02-18T13:46:07;53.23;52.03;54.27;;
48148;Laerm;29352;48.708;9.290;2023-02-18T13:51:37;53.26;52.03;54.19;;
48148;Laerm;29352;48.708;9.290;2023-02-18T13:54:43;53.26;52.16;54.23;;
48148;Laerm;29352;48.708;9.290;2023-02-18T13:57:18;53.26;52.03;54.39;;
48148;Laerm;29352;48.708;9.290;2023-02-18T13:59:52;53.26;52.03;54.43;;
48148;Laerm;29352;48.708;9.290;2023-02-18T14:22:49;53.22;52.22;54.11;;
48148;Laerm;29352;48.708;9.290;2023-02-18T14:27:55;53.21;51.96;54.39;;
48148;Laerm;29352;48.708;9.290;2023-02-18T14:32:49;53.20;51.82;54.47;;
48148;Laerm;29352;48.708;9.290;2023-02-18T14:35:26;53.21;51.82;54.19;;
48148;Laerm;29352;48.708;9.290;2023-02-18T14:38:24;53.17;51.96;54.27;;
48148;Laerm;29352;48.708;9.290;2023-02-18T14:41:07;53.16;51.96;54.19;;
48148;Laerm;29352;48.708;9.290;2023-02-18T14:44:03;53.13;52.09;54.19;;
48148;Laerm;29352;48.708;9.290;2023-02-18T14:49:51;53.14;51.96;54.11;;
48148;Laerm;29352;48.708;9.290;2023-02-18T14:52:41;53.14;51.68;54.11;;
48148;Laerm;29352;48.708;9.290;2023-02-18T14:55:38;53.13;51.82;54.39;;
48148;Laerm;29352;48.708;9.290;2023-02-18T14:58:24;53.13;52.03;54.35;;
48148;Laerm;29352;48.708;9.290;2023-02-18T15:00:51;53.12;51.82;54.23;;
48148;Laerm;29352;48.708;9.290;2023-02-18T15:03:20;53.13;52.00;54.11;;
48148;Laerm;29352;48.708;9.290;2023-02-18T15:05:49;53.14;51.96;54.23;;
48148;Laerm;29352;48.708;9.290;2023-02-18T15:08:22;53.14;51.82;54.11;;
48148;Laerm;29352;48.708;9.290;2023-02-18T15:11:00;53.14;51.96;54.35;;
48148;Laerm;29352;48.708;9.290;2023-02-18T15:13:50;53.14;52.03;54.19;;
48148;Laerm;29352;48.708;9.290;2023-02-18T15:16:30;53.07;50.13;54.15;;
48148;Laerm;29352;48.708;9.290;2023-02-18T15:19:01;52.57;49.68;54.19;;
48148;Laerm;29352;48.708;9.290;2023-02-18T15:21:38;52.88;50.03;54.15;;
48148;Laerm;29352;48.708;9.290;2023-02-18T15:24:31;53.16;51.96;54.15;;
48148;Laerm;29352;48.708;9.290;2023-02-18T15:27:16;53.16;51.68;54.31;;
48148;Laerm;29352;48.708;9.290;2023-02-18T15:29:43;53.17;51.75;54.27;;
48148;Laerm;29352;48.708;9.290;2023-02-18T15:32:24;53.16;51.96;54.39;;
48148;Laerm;29352;48.708;9.290;2023-02-18T15:35:01;53.16;51.82;54.15;;
48148;Laerm;29352;48.708;9.290;2023-02-18T15:37:28;53.17;52.03;54.31;;
48148;Laerm;29352;48.708;9.290;2023-02-18T15:39:54;53.18;51.96;54.39;;
48148;Laerm;29352;48.708;9.290;2023-02-18T15:42:32;53.18;52.03;54.31;;
48148;Laerm;29352;48.708;9.290;2023-02-18T15:47:52;53.19;51.68;54.31;;
48148;Laerm;29352;48.708;9.290;2023-02-18T15:52:56;53.22;51.96;54.23;;
48148;Laerm;29352;48.708;9.290;2023-02-18T15:55:35;53.24;51.89;54.35;;
48148;Laerm;29352;48.708;9.290;2023-02-18T15:58:12;53.24;51.96;54.31;;
48148;Laerm;29352;48.708;9.290;2023-02-18T16:00:51;53.26;52.09;54.47;;
48148;Laerm;29352;48.708;9.290;2023-02-18T16:03:31;53.27;52.03;54.31;;
48148;Laerm;29352;48.708;9.290;2023-02-18T16:06:10;53.28;52.09;54.31;;
48148;Laerm;29352;48.708;9.290;2023-02-18T16:08:37;53.28;52.09;54.27;;
48148;Laerm;29352;48.708;9.290;2023-02-18T16:11:11;53.30;52.29;54.47;;
48148;Laerm;29352;48.708;9.290;2023-02-18T16:13:46;53.32;52.22;54.35;;
48148;Laerm;29352;48.708;9.290;2023-02-18T16:16:28;53.35;52.22;54.51;;
48148;Laerm;29352;48.708;9.290;2023-02-18T16:18:54;53.34;51.68;54.31;;
48148;Laerm;29352;48.708;9.290;2023-02-18T16:23:54;53.37;51.68;54.51;;
48148;Laerm;29352;48.708;9.290;2023-02-18T16:26:41;53.38;51.61;54.35;;
48148;Laerm;29352;48.708;9.290;2023-02-18T16:29:39;53.40;52.16;54.39;;